Time;durP1;ratioP1;P1;durP2;ratioP2;P2;SDS_P1;SDS_P2;PMS_P1;PMS_P2;Temp;Humidity;BMP_temperature;BMP_pressure;BME280_temperature;BME280_humidity;BME280_pressure;Samples;Min_cycle;Max_cycle;Signal;HPM_P1;HPM_P2
2022/07/09 00:00:34;;;;;;;4.40;2.60;;;;;;;;;;4948731;28;20043;-68
2022/07/09 00:03:20;;;;;;;8.90;3.08;;;;;;;;;;4956191;28;20500;-68
2022/07/09 00:06:06;;;;;;;4.30;2.50;;;;;;;;;;4950970;28;20042;-67
2022/07/09 00:08:51;;;;;;;6.43;2.40;;;;;;;;;;4951699;28;20225;-67
2022/07/09 00:11:37;;;;;;;6.20;2.90;;;;;;;;;;4944643;28;20019;-58
2022/07/09 00:14:22;;;;;;;5.50;2.65;;;;;;;;;;4950423;28;20389;-56
2022/07/09 00:17:08;;;;;;;5.20;2.40;;;;;;;;;;4955294;28;20031;-58
2022/07/09 00:19:53;;;;;;;5.43;2.50;;;;;;;;;;4951385;28;20039;-57
2022/07/09 00:22:39;;;;;;;8.20;2.90;;;;;;;;;;4963368;28;20450;-56
2022/07/09 00:25:25;;;;;;;6.82;3.08;;;;;;;;;;4951266;28;20074;-57
2022/07/09 00:28:10;;;;;;;5.15;2.53;;;;;;;;;;4960951;28;20393;-64
2022/07/09 00:30:56;;;;;;;5.03;2.38;;;;;;;;;;4950366;28;20321;-61
2022/07/09 00:33:41;;;;;;;6.35;3.00;;;;;;;;;;4964301;28;20050;-61
2022/07/09 00:36:27;;;;;;;8.02;3.15;;;;;;;;;;4956723;28;20046;-60
2022/07/09 00:39:12;;;;;;;10.98;3.25;;;;;;;;;;4956274;28;20046;-62
2022/07/09 00:42:03;;;;;;;6.70;2.95;;;;;;;;;;4954039;28;20028;-62
2022/07/09 00:44:48;;;;;;;4.03;2.55;;;;;;;;;;4953164;28;20506;-66
2022/07/09 00:47:34;;;;;;;5.60;2.97;;;;;;;;;;4952713;28;20024;-65
2022/07/09 00:50:20;;;;;;;6.75;3.88;;;;;;;;;;4950844;28;20031;-65
2022/07/09 00:53:07;;;;;;;6.15;3.17;;;;;;;;;;4951197;28;20031;-64
2022/07/09 00:55:53;;;;;;;5.43;2.85;;;;;;;;;;4955356;28;20037;-66
2022/07/09 00:58:39;;;;;;;4.90;2.33;;;;;;;;;;4958235;28;20409;-64
2022/07/09 01:01:24;;;;;;;6.70;2.95;;;;;;;;;;4958244;28;20053;-64
2022/07/09 01:04:10;;;;;;;5.80;2.63;;;;;;;;;;4956443;28;20031;-60
2022/07/09 01:06:57;;;;;;;6.53;2.85;;;;;;;;;;4945895;28;20027;-67
2022/07/09 01:09:43;;;;;;;4.97;2.50;;;;;;;;;;4957023;28;20023;-67
2022/07/09 01:12:29;;;;;;;5.35;2.50;;;;;;;;;;4956922;28;20057;-67
2022/07/09 01:15:14;;;;;;;6.18;2.33;;;;;;;;;;4953922;28;20092;-66
2022/07/09 01:18:00;;;;;;;6.80;2.75;;;;;;;;;;4942078;28;20048;-67
2022/07/09 01:20:46;;;;;;;5.43;2.45;;;;;;;;;;4953998;28;20106;-65
2022/07/09 01:23:31;;;;;;;9.50;2.80;;;;;;;;;;4958914;28;20487;-64
2022/07/09 01:26:19;;;;;;;5.18;2.88;;;;;;;;;;4942244;28;20074;-65
2022/07/09 01:29:05;;;;;;;8.05;2.42;;;;;;;;;;4958006;28;20428;-65
2022/07/09 01:31:50;;;;;;;6.20;2.67;;;;;;;;;;4953546;28;20034;-65
2022/07/09 01:34:36;;;;;;;5.03;2.58;;;;;;;;;;4941941;28;20033;-65
2022/07/09 01:37:22;;;;;;;7.40;3.10;;;;;;;;;;4953359;28;20483;-65
2022/07/09 01:40:07;;;;;;;6.40;3.47;;;;;;;;;;4947132;28;20031;-65
2022/07/09 01:42:53;;;;;;;6.20;2.75;;;;;;;;;;4953528;28;20394;-59
2022/07/09 01:45:39;;;;;;;5.35;2.70;;;;;;;;;;4967462;28;20477;-59
2022/07/09 01:48:25;;;;;;;6.53;2.58;;;;;;;;;;4944429;28;20028;-59
2022/07/09 01:51:12;;;;;;;7.65;3.13;;;;;;;;;;4957292;28;20134;-60
2022/07/09 01:53:57;;;;;;;5.85;2.72;;;;;;;;;;4952549;28;20023;-58
2022/07/09 01:56:43;;;;;;;8.15;3.38;;;;;;;;;;4960704;28;20050;-59
2022/07/09 01:59:28;;;;;;;5.53;2.70;;;;;;;;;;4947833;28;20039;-59
2022/07/09 02:02:14;;;;;;;9.25;2.60;;;;;;;;;;4957825;28;20077;-60
2022/07/09 02:05:00;;;;;;;9.20;3.03;;;;;;;;;;4955274;28;20534;-61
2022/07/09 02:07:46;;;;;;;5.97;2.60;;;;;;;;;;4952143;28;20023;-61
2022/07/09 02:10:32;;;;;;;4.05;2.50;;;;;;;;;;4960222;28;20134;-62
2022/07/09 02:13:19;;;;;;;10.00;2.72;;;;;;;;;;4960122;28;20137;-60
2022/07/09 02:16:05;;;;;;;5.20;2.55;;;;;;;;;;4953301;28;20506;-58
2022/07/09 02:18:50;;;;;;;3.72;2.58;;;;;;;;;;4968630;28;20035;-66
2022/07/09 02:21:36;;;;;;;7.10;2.53;;;;;;;;;;4963463;28;20035;-58
2022/07/09 02:24:21;;;;;;;7.07;2.80;;;;;;;;;;4954062;28;20039;-60
2022/07/09 02:27:07;;;;;;;10.32;3.15;;;;;;;;;;4956038;28;20023;-58
2022/07/09 02:29:53;;;;;;;7.25;3.38;;;;;;;;;;4951979;28;20023;-58
2022/07/09 02:32:39;;;;;;;5.70;2.65;;;;;;;;;;4958624;28;20102;-61
2022/07/09 02:35:24;;;;;;;8.57;2.97;;;;;;;;;;4952773;28;20084;-68
2022/07/09 02:38:10;;;;;;;8.85;3.50;;;;;;;;;;4952983;28;20039;-66
2022/07/09 02:40:55;;;;;;;5.05;2.92;;;;;;;;;;4960293;28;20034;-66
2022/07/09 02:43:43;;;;;;;9.85;3.45;;;;;;;;;;4957925;28;20058;-65
2022/07/09 02:46:28;;;;;;;6.03;2.70;;;;;;;;;;4952232;28;20027;-66
2022/07/09 02:49:14;;;;;;;5.55;2.50;;;;;;;;;;4946213;28;20031;-65
2022/07/09 02:52:01;;;;;;;5.70;2.70;;;;;;;;;;4949825;28;20122;-64
2022/07/09 02:54:47;;;;;;;4.93;2.80;;;;;;;;;;4958580;28;20066;-60
2022/07/09 02:57:32;;;;;;;8.32;2.88;;;;;;;;;;4955010;28;20023;-68
2022/07/09 03:00:18;;;;;;;7.30;2.85;;;;;;;;;;4955971;28;20038;-67
2022/07/09 03:03:03;;;;;;;4.95;2.72;;;;;;;;;;4959018;28;20027;-69
2022/07/09 03:05:49;;;;;;;7.72;3.00;;;;;;;;;;4966870;28;20019;-68
2022/07/09 03:08:35;;;;;;;5.85;3.20;;;;;;;;;;4953875;28;20123;-69
2022/07/09 03:11:20;;;;;;;8.02;2.88;;;;;;;;;;4955883;28;20493;-60
2022/07/09 03:14:06;;;;;;;6.55;3.38;;;;;;;;;;4954825;28;20031;-64
2022/07/09 03:16:51;;;;;;;6.30;2.90;;;;;;;;;;4952872;28;20031;-70
2022/07/09 03:19:37;;;;;;;9.93;3.00;;;;;;;;;;4957116;28;20035;-71
2022/07/09 03:22:22;;;;;;;5.45;2.45;;;;;;;;;;4951759;28;20023;-69
2022/07/09 03:25:08;;;;;;;5.43;2.70;;;;;;;;;;4956744;28;20133;-70
2022/07/09 03:27:54;;;;;;;6.72;2.72;;;;;;;;;;4953982;28;20055;-69
2022/07/09 03:30:39;;;;;;;5.65;2.83;;;;;;;;;;4957954;28;20067;-58
2022/07/09 03:33:25;;;;;;;4.13;2.55;;;;;;;;;;4947138;28;20027;-61
2022/07/09 03:36:10;;;;;;;4.57;2.50;;;;;;;;;;4945356;28;20026;-59
2022/07/09 03:38:56;;;;;;;7.60;2.72;;;;;;;;;;4964053;28;20134;-61
2022/07/09 03:41:42;;;;;;;7.38;3.00;;;;;;;;;;4954893;28;20026;-58
2022/07/09 03:44:27;;;;;;;4.47;2.80;;;;;;;;;;4958509;28;20046;-59
2022/07/09 03:47:13;;;;;;;7.65;3.28;;;;;;;;;;4953717;28;20023;-61
2022/07/09 03:49:58;;;;;;;6.18;2.67;;;;;;;;;;4950510;28;20027;-65
2022/07/09 03:52:44;;;;;;;5.88;3.05;;;;;;;;;;4962590;28;20020;-64
2022/07/09 03:55:30;;;;;;;6.47;2.85;;;;;;;;;;4948786;28;20068;-65
2022/07/09 03:58:15;;;;;;;6.50;3.38;;;;;;;;;;4983015;28;20037;-64
2022/07/09 04:01:01;;;;;;;6.68;3.10;;;;;;;;;;4949400;28;20054;-65
2022/07/09 04:03:47;;;;;;;4.40;2.53;;;;;;;;;;4965538;28;20061;-66
2022/07/09 04:06:32;;;;;;;4.93;3.05;;;;;;;;;;4949690;28;20030;-70
2022/07/09 04:09:18;;;;;;;7.35;2.85;;;;;;;;;;4958541;28;20035;-59
2022/07/09 04:12:03;;;;;;;8.30;3.80;;;;;;;;;;4954582;28;20474;-63
2022/07/09 04:14:49;;;;;;;5.55;2.50;;;;;;;;;;4952411;28;20031;-64
2022/07/09 04:17:34;;;;;;;8.40;2.92;;;;;;;;;;4944499;28;20032;-62
2022/07/09 04:20:21;;;;;;;6.20;2.63;;;;;;;;;;4956287;28;20035;-64
2022/07/09 04:23:06;;;;;;;6.40;3.03;;;;;;;;;;4939887;28;20076;-64
2022/07/09 04:25:52;;;;;;;4.75;2.30;;;;;;;;;;4944753;28;20047;-63
2022/07/09 04:28:38;;;;;;;7.85;2.90;;;;;;;;;;4942681;28;20023;-58
2022/07/09 04:31:23;;;;;;;6.72;3.45;;;;;;;;;;4959346;28;20110;-71
2022/07/09 04:34:09;;;;;;;4.82;2.58;;;;;;;;;;4949750;28;20031;-70
2022/07/09 04:36:55;;;;;;;7.47;2.67;;;;;;;;;;4955744;28;20027;-70
2022/07/09 04:39:40;;;;;;;6.80;2.83;;;;;;;;;;4945797;28;20043;-70
2022/07/09 04:42:26;;;;;;;6.38;3.35;;;;;;;;;;4947573;28;20019;-70
2022/07/09 04:45:11;;;;;;;4.47;2.45;;;;;;;;;;4947455;28;20034;-71
2022/07/09 04:47:58;;;;;;;7.20;3.35;;;;;;;;;;4953826;28;20031;-82
2022/07/09 04:50:44;;;;;;;7.30;2.97;;;;;;;;;;4973717;28;20110;-81
2022/07/09 04:53:29;;;;;;;7.43;2.75;;;;;;;;;;4947569;28;20027;-80
2022/07/09 04:56:15;;;;;;;6.13;2.92;;;;;;;;;;4953015;28;20031;-82
2022/07/09 04:59:02;;;;;;;7.20;3.85;;;;;;;;;;4952909;28;20043;-83
2022/07/09 05:01:49;;;;;;;7.07;2.58;;;;;;;;;;4951117;28;20080;-75
2022/07/09 05:04:35;;;;;;;8.75;3.17;;;;;;;;;;4955146;28;20074;-80
2022/07/09 05:07:21;;;;;;;5.47;2.92;;;;;;;;;;4950503;28;20106;-75
2022/07/09 05:10:06;;;;;;;4.35;2.45;;;;;;;;;;4954086;28;20063;-75
2022/07/09 05:12:52;;;;;;;5.10;2.78;;;;;;;;;;4949075;28;20592;-76
2022/07/09 05:15:37;;;;;;;9.82;2.97;;;;;;;;;;4939366;28;20493;-75
2022/07/09 05:18:23;;;;;;;5.88;2.63;;;;;;;;;;4950383;28;20046;-76
2022/07/09 05:21:09;;;;;;;6.45;2.53;;;;;;;;;;4968689;28;20362;-76
2022/07/09 05:23:54;;;;;;;6.85;2.67;;;;;;;;;;4955205;28;20023;-77
2022/07/09 05:26:40;;;;;;;4.88;2.28;;;;;;;;;;4949651;28;20027;-77
2022/07/09 05:29:26;;;;;;;6.30;3.00;;;;;;;;;;4946308;28;20042;-77
2022/07/09 05:32:13;;;;;;;7.82;2.65;;;;;;;;;;4964064;28;20053;-76
2022/07/09 05:34:59;;;;;;;5.53;2.25;;;;;;;;;;4952717;28;20027;-75
2022/07/09 05:37:44;;;;;;;7.38;2.42;;;;;;;;;;4947402;28;20498;-76
2022/07/09 05:40:30;;;;;;;8.25;3.05;;;;;;;;;;4961695;28;20057;-82
2022/07/09 05:43:16;;;;;;;10.63;3.15;;;;;;;;;;4949687;28;20118;-75
2022/07/09 05:46:02;;;;;;;6.22;2.47;;;;;;;;;;4949400;28;20023;-75
2022/07/09 05:48:47;;;;;;;4.32;2.42;;;;;;;;;;4953652;28;20122;-75
2022/07/09 05:51:33;;;;;;;7.80;2.90;;;;;;;;;;4945741;28;20101;-74
2022/07/09 05:54:19;;;;;;;6.30;2.80;;;;;;;;;;4954672;28;20038;-75
2022/07/09 05:57:04;;;;;;;5.95;2.75;;;;;;;;;;4942879;28;20031;-83
2022/07/09 05:59:50;;;;;;;6.78;2.58;;;;;;;;;;4936456;28;20031;-76
2022/07/09 06:02:35;;;;;;;7.18;2.67;;;;;;;;;;4953644;28;20397;-74
2022/07/09 06:05:21;;;;;;;5.03;2.55;;;;;;;;;;4950101;28;20089;-75
2022/07/09 06:08:07;;;;;;;7.78;3.67;;;;;;;;;;4948004;28;20520;-75
2022/07/09 06:10:52;;;;;;;6.78;2.42;;;;;;;;;;4952011;28;20366;-76
2022/07/09 06:13:38;;;;;;;6.50;2.58;;;;;;;;;;4941293;28;20019;-77
2022/07/09 06:16:25;;;;;;;7.03;2.20;;;;;;;;;;4951870;28;20209;-77
2022/07/09 06:19:10;;;;;;;6.25;2.30;;;;;;;;;;4947141;28;20043;-73
2022/07/09 06:21:56;;;;;;;7.15;2.60;;;;;;;;;;4951883;28;20482;-72
2022/07/09 06:24:41;;;;;;;7.80;2.75;;;;;;;;;;4957199;28;20031;-71
2022/07/09 06:27:27;;;;;;;5.90;2.50;;;;;;;;;;4948589;28;20458;-72
2022/07/09 06:30:13;;;;;;;7.30;2.90;;;;;;;;;;4962920;28;20046;-73
2022/07/09 06:32:58;;;;;;;7.65;2.50;;;;;;;;;;4956616;28;20027;-71
2022/07/09 06:35:44;;;;;;;5.18;2.20;;;;;;;;;;4957345;28;20020;-83
2022/07/09 06:38:29;;;;;;;7.32;2.70;;;;;;;;;;4949918;28;20035;-72
2022/07/09 06:41:15;;;;;;;3.95;1.90;;;;;;;;;;4943621;28;20031;-72
2022/07/09 06:44:01;;;;;;;5.05;2.13;;;;;;;;;;4965748;28;20049;-72
2022/07/09 06:46:46;;;;;;;8.68;2.75;;;;;;;;;;4957667;28;20023;-72
2022/07/09 06:49:32;;;;;;;4.63;2.38;;;;;;;;;;4952440;28;20433;-71
2022/07/09 06:52:18;;;;;;;7.35;2.53;;;;;;;;;;4955716;28;20054;-77
2022/07/09 06:55:03;;;;;;;7.55;2.35;;;;;;;;;;4950008;28;20076;-77
2022/07/09 06:57:49;;;;;;;5.55;2.30;;;;;;;;;;4959290;28;20030;-72
2022/07/09 07:00:35;;;;;;;6.68;2.40;;;;;;;;;;4956334;28;20049;-72
2022/07/09 07:03:20;;;;;;;8.60;3.45;;;;;;;;;;4952497;28;20028;-71
2022/07/09 07:06:06;;;;;;;5.22;1.90;;;;;;;;;;4966546;28;20030;-71
2022/07/09 07:08:52;;;;;;;8.75;2.80;;;;;;;;;;4956773;28;20058;-73
2022/07/09 07:11:37;;;;;;;7.78;2.55;;;;;;;;;;4955985;28;20497;-75
2022/07/09 07:14:23;;;;;;;9.07;3.20;;;;;;;;;;4960055;28;20027;-75
2022/07/09 07:17:09;;;;;;;8.65;2.70;;;;;;;;;;4956068;28;20483;-75
2022/07/09 07:19:54;;;;;;;3.63;1.92;;;;;;;;;;4951202;28;20039;-74
2022/07/09 07:22:40;;;;;;;6.00;1.88;;;;;;;;;;4964333;28;20018;-77
2022/07/09 07:25:25;;;;;;;6.07;2.35;;;;;;;;;;4951117;28;20046;-75
2022/07/09 07:28:11;;;;;;;9.48;2.53;;;;;;;;;;4951609;28;20027;-74
2022/07/09 07:30:57;;;;;;;6.32;1.77;;;;;;;;;;4958561;28;20118;-71
2022/07/09 07:33:43;;;;;;;5.05;2.03;;;;;;;;;;4954131;28;20035;-76
2022/07/09 07:36:28;;;;;;;5.65;2.22;;;;;;;;;;4963400;28;20027;-76
2022/07/09 07:39:14;;;;;;;7.55;2.63;;;;;;;;;;4950553;28;20031;-76
2022/07/09 07:41:59;;;;;;;7.13;2.72;;;;;;;;;;4950946;28;20405;-74
2022/07/09 07:44:45;;;;;;;4.95;1.88;;;;;;;;;;4963843;28;20031;-75
2022/07/09 07:47:30;;;;;;;6.25;1.98;;;;;;;;;;4956233;28;20093;-77
2022/07/09 07:50:16;;;;;;;4.97;1.80;;;;;;;;;;4952397;28;20038;-75
2022/07/09 07:53:02;;;;;;;6.55;2.13;;;;;;;;;;4952907;28;20023;-78
2022/07/09 07:55:47;;;;;;;5.93;1.90;;;;;;;;;;4961468;28;20088;-77
2022/07/09 07:58:33;;;;;;;6.70;2.08;;;;;;;;;;4950419;28;20035;-76
2022/07/09 08:01:19;;;;;;;9.77;2.40;;;;;;;;;;4955415;28;20023;-78
2022/07/09 08:04:04;;;;;;;4.95;1.80;;;;;;;;;;4955529;28;20027;-76
2022/07/09 08:06:50;;;;;;;3.70;1.48;;;;;;;;;;4951622;28;20019;-76
2022/07/09 08:09:35;;;;;;;4.30;1.92;;;;;;;;;;4953732;28;20482;-83
2022/07/09 08:12:21;;;;;;;6.75;1.85;;;;;;;;;;4950848;28;20028;-82
2022/07/09 08:15:07;;;;;;;6.82;1.70;;;;;;;;;;4955445;28;20072;-82
2022/07/09 08:17:53;;;;;;;4.18;1.60;;;;;;;;;;4952260;28;20023;-81
2022/07/09 08:20:39;;;;;;;5.68;1.75;;;;;;;;;;4951917;28;20134;-81
2022/07/09 08:23:25;;;;;;;3.90;1.40;;;;;;;;;;4947188;28;20110;-82
2022/07/09 08:26:10;;;;;;;4.00;1.60;;;;;;;;;;4956454;28;20023;-72
2022/07/09 08:28:56;;;;;;;6.38;2.03;;;;;;;;;;4948041;28;20043;-73
2022/07/09 08:31:42;;;;;;;3.88;1.80;;;;;;;;;;4950026;28;20035;-73
2022/07/09 08:34:27;;;;;;;5.53;1.70;;;;;;;;;;4964855;28;20026;-73
2022/07/09 08:37:13;;;;;;;4.65;1.80;;;;;;;;;;4975636;28;20490;-73
2022/07/09 08:40:00;;;;;;;4.72;1.38;;;;;;;;;;4954833;28;20042;-72
2022/07/09 08:42:45;;;;;;;7.40;1.77;;;;;;;;;;4952788;28;20024;-76
2022/07/09 08:45:31;;;;;;;5.90;1.80;;;;;;;;;;4961865;28;20102;-75
2022/07/09 08:48:18;;;;;;;5.68;1.85;;;;;;;;;;4959394;28;20027;-72
2022/07/09 08:51:04;;;;;;;5.57;1.70;;;;;;;;;;4954420;28;20505;-72
2022/07/09 08:53:49;;;;;;;4.20;1.63;;;;;;;;;;4953087;28;20023;-72
2022/07/09 08:56:35;;;;;;;3.97;1.85;;;;;;;;;;4943670;28;20108;-71
2022/07/09 08:59:21;;;;;;;3.35;1.65;;;;;;;;;;4956426;28;20047;-71
2022/07/09 09:02:09;;;;;;;3.63;1.75;;;;;;;;;;4950334;28;20482;-73
2022/07/09 09:04:55;;;;;;;4.80;1.60;;;;;;;;;;4955896;28;20454;-84
2022/07/09 09:07:41;;;;;;;3.42;1.48;;;;;;;;;;4959734;28;20027;-82
2022/07/09 09:10:30;;;;;;;5.00;1.73;;;;;;;;;;4951888;28;20031;-82
2022/07/09 09:13:16;;;;;;;4.10;1.80;;;;;;;;;;4957960;28;20030;-82
2022/07/09 09:16:09;;;;;;;4.35;1.40;;;;;;;;;;4955719;28;20094;-83
2022/07/09 09:18:59;;;;;;;4.60;1.38;;;;;;;;;;4955311;28;20037;-84
2022/07/09 09:21:49;;;;;;;6.00;1.88;;;;;;;;;;4959262;28;20274;-76
2022/07/09 09:24:35;;;;;;;8.25;1.85;;;;;;;;;;4960093;28;20039;-71
2022/07/09 09:27:28;;;;;;;4.28;1.30;;;;;;;;;;4954545;28;20035;-71
2022/07/09 09:30:13;;;;;;;3.80;1.48;;;;;;;;;;4946593;28;20055;-72
2022/07/09 09:33:00;;;;;;;4.18;1.90;;;;;;;;;;4942237;28;20031;-73
2022/07/09 09:35:46;;;;;;;4.30;2.10;;;;;;;;;;4958178;28;20089;-72
2022/07/09 09:38:31;;;;;;;4.90;1.92;;;;;;;;;;4957718;28;20073;-73
2022/07/09 09:41:21;;;;;;;5.07;1.45;;;;;;;;;;4943936;28;20059;-78
2022/07/09 09:44:11;;;;;;;5.50;1.70;;;;;;;;;;4960446;28;20528;-77
2022/07/09 09:46:57;;;;;;;8.02;2.10;;;;;;;;;;4953883;28;20466;-79
2022/07/09 09:49:44;;;;;;;2.38;1.40;;;;;;;;;;4948101;28;20027;-78
2022/07/09 09:52:30;;;;;;;4.57;1.83;;;;;;;;;;4949895;28;20038;-78
2022/07/09 09:55:17;;;;;;;4.78;1.88;;;;;;;;;;4955401;28;20030;-79
2022/07/09 09:58:02;;;;;;;6.90;2.42;;;;;;;;;;4956044;28;20027;-73
2022/07/09 10:00:48;;;;;;;4.95;1.40;;;;;;;;;;4944186;28;20141;-77
2022/07/09 10:03:33;;;;;;;5.28;1.55;;;;;;;;;;4949671;28;20073;-76
2022/07/09 10:06:19;;;;;;;5.15;1.70;;;;;;;;;;4955678;28;20031;-76
2022/07/09 10:09:07;;;;;;;2.67;1.40;;;;;;;;;;4947019;28;20027;-78
2022/07/09 10:11:52;;;;;;;3.05;1.58;;;;;;;;;;4948503;28;20035;-78
2022/07/09 10:14:39;;;;;;;5.07;1.40;;;;;;;;;;4956444;28;20058;-76
2022/07/09 10:17:25;;;;;;;5.97;1.92;;;;;;;;;;4951779;28;20034;-82
2022/07/09 10:20:11;;;;;;;3.35;1.63;;;;;;;;;;4954240;28;20406;-72
2022/07/09 10:22:57;;;;;;;7.68;1.63;;;;;;;;;;4952556;28;20031;-73
2022/07/09 10:25:45;;;;;;;2.42;1.30;;;;;;;;;;4964605;28;20394;-74
2022/07/09 10:28:40;;;;;;;4.20;1.58;;;;;;;;;;4959486;28;20028;-73
2022/07/09 10:31:25;;;;;;;4.32;1.40;;;;;;;;;;4955811;28;20031;-73
2022/07/09 10:34:16;;;;;;;4.10;1.67;;;;;;;;;;4983951;28;20038;-73
2022/07/09 10:37:03;;;;;;;3.75;1.40;;;;;;;;;;4959977;28;20080;-83
2022/07/09 10:39:52;;;;;;;3.08;1.35;;;;;;;;;;4962563;28;20038;-83
2022/07/09 10:42:38;;;;;;;1.65;1.10;;;;;;;;;;4943259;28;20023;-82
2022/07/09 10:45:25;;;;;;;3.05;1.52;;;;;;;;;;4955449;28;20043;-82
2022/07/09 10:48:12;;;;;;;2.10;1.38;;;;;;;;;;4943204;28;20038;-82
2022/07/09 10:50:57;;;;;;;2.20;1.40;;;;;;;;;;4951631;28;20047;-83
2022/07/09 10:53:43;;;;;;;3.92;1.33;;;;;;;;;;4947325;28;20132;-77
2022/07/09 10:56:28;;;;;;;2.85;1.10;;;;;;;;;;4956898;28;20062;-82
2022/07/09 10:59:20;;;;;;;5.55;1.40;;;;;;;;;;4951732;28;20031;-83
2022/07/09 11:02:05;;;;;;;2.92;1.33;;;;;;;;;;4958507;28;20375;-85
2022/07/09 11:04:52;;;;;;;1.75;0.98;;;;;;;;;;4952012;28;20020;-85
2022/07/09 11:07:37;;;;;;;2.92;1.52;;;;;;;;;;4946313;28;20073;-84
2022/07/09 11:10:24;;;;;;;3.63;1.27;;;;;;;;;;4953805;28;20102;-83
2022/07/09 11:13:10;;;;;;;1.65;1.13;;;;;;;;;;4951405;28;20375;-86
2022/07/09 11:16:00;;;;;;;3.30;1.30;;;;;;;;;;4953605;28;20437;-85
2022/07/09 11:18:46;;;;;;;4.25;1.52;;;;;;;;;;4951160;28;20066;-84
2022/07/09 11:21:32;;;;;;;3.90;1.40;;;;;;;;;;4954076;28;20015;-85
2022/07/09 11:24:19;;;;;;;2.92;1.55;;;;;;;;;;4944962;28;20486;-83
2022/07/09 11:27:06;;;;;;;5.93;1.65;;;;;;;;;;4953580;28;20034;-83
2022/07/09 11:29:52;;;;;;;2.58;1.27;;;;;;;;;;4948191;28;20031;-78
2022/07/09 11:32:37;;;;;;;2.10;1.30;;;;;;;;;;4948045;28;20041;-85
2022/07/09 11:35:33;;;;;;;3.85;1.23;;;;;;;;;;4951172;28;20032;-83
2022/07/09 11:38:19;;;;;;;3.60;1.27;;;;;;;;;;4957537;28;20486;-83
2022/07/09 11:41:04;;;;;;;3.42;1.70;;;;;;;;;;4952218;28;20019;-85
2022/07/09 11:43:51;;;;;;;3.10;1.55;;;;;;;;;;4951695;28;20030;-83
2022/07/09 11:46:37;;;;;;;3.25;1.33;;;;;;;;;;4952019;28;20428;-78
2022/07/09 11:49:23;;;;;;;3.30;1.45;;;;;;;;;;4977232;28;20038;-73
2022/07/09 11:52:18;;;;;;;4.78;1.60;;;;;;;;;;4951757;28;20112;-77
2022/07/09 11:55:05;;;;;;;3.55;1.20;;;;;;;;;;4953370;28;20035;-77
2022/07/09 11:57:55;;;;;;;3.83;1.45;;;;;;;;;;4955007;28;20398;-77
2022/07/09 12:00:41;;;;;;;4.65;1.33;;;;;;;;;;4957371;28;20489;-75
2022/07/09 12:03:27;;;;;;;3.33;1.30;;;;;;;;;;4954101;28;20019;-77
2022/07/09 12:06:14;;;;;;;2.55;1.27;;;;;;;;;;4948328;28;20043;-72
2022/07/09 12:09:00;;;;;;;5.05;1.58;;;;;;;;;;4954485;28;20027;-73
2022/07/09 12:11:46;;;;;;;5.78;1.50;;;;;;;;;;4947977;28;20541;-71
2022/07/09 12:14:32;;;;;;;2.67;1.42;;;;;;;;;;4950894;28;20023;-71
2022/07/09 12:17:27;;;;;;;3.72;1.25;;;;;;;;;;4949687;28;20023;-73
2022/07/09 12:20:13;;;;;;;3.50;1.23;;;;;;;;;;4958632;28;20483;-71
2022/07/09 12:22:58;;;;;;;3.75;1.73;;;;;;;;;;4949249;28;20027;-73
2022/07/09 12:25:44;;;;;;;3.13;1.40;;;;;;;;;;4950749;28;20106;-76
2022/07/09 12:28:30;;;;;;;5.28;1.67;;;;;;;;;;4963236;28;20137;-70
2022/07/09 12:31:15;;;;;;;2.67;1.35;;;;;;;;;;4952514;28;20092;-72
2022/07/09 12:34:01;;;;;;;2.10;1.15;;;;;;;;;;4959118;28;20027;-73
2022/07/09 12:36:47;;;;;;;3.63;1.33;;;;;;;;;;4952036;28;20230;-72
2022/07/09 12:39:33;;;;;;;2.47;1.20;;;;;;;;;;4955998;28;20042;-73
2022/07/09 12:42:19;;;;;;;2.10;1.20;;;;;;;;;;4950615;28;20031;-77
2022/07/09 12:45:05;;;;;;;3.90;1.58;;;;;;;;;;4948928;28;20026;-73
2022/07/09 12:47:52;;;;;;;3.53;1.23;;;;;;;;;;4949655;28;20398;-71
2022/07/09 12:50:37;;;;;;;3.35;1.45;;;;;;;;;;4970039;28;20035;-72
2022/07/09 12:53:23;;;;;;;3.70;1.60;;;;;;;;;;4954293;28;20049;-71
2022/07/09 12:56:08;;;;;;;3.25;1.42;;;;;;;;;;4953314;28;20033;-72
2022/07/09 12:58:54;;;;;;;3.28;1.25;;;;;;;;;;4950824;28;20128;-72
2022/07/09 13:01:40;;;;;;;3.72;1.25;;;;;;;;;;4939619;28;20030;-82
2022/07/09 13:04:25;;;;;;;2.78;1.10;;;;;;;;;;4947321;28;20118;-72
2022/07/09 13:07:11;;;;;;;3.05;1.20;;;;;;;;;;4949782;28;20054;-73
2022/07/09 13:09:56;;;;;;;2.92;1.02;;;;;;;;;;5014297;28;20093;-72
2022/07/09 13:12:42;;;;;;;2.20;1.23;;;;;;;;;;4957906;28;20385;-73
2022/07/09 13:15:28;;;;;;;3.83;1.35;;;;;;;;;;4952952;28;20027;-72
2022/07/09 13:18:14;;;;;;;2.05;1.33;;;;;;;;;;4955840;28;20027;-74
2022/07/09 13:21:00;;;;;;;2.72;1.40;;;;;;;;;;4956077;28;20022;-70
2022/07/09 13:23:46;;;;;;;1.95;1.00;;;;;;;;;;4957641;28;20300;-85
2022/07/09 13:26:32;;;;;;;3.38;1.38;;;;;;;;;;4951633;28;20487;-84
2022/07/09 13:29:17;;;;;;;3.13;1.20;;;;;;;;;;4958656;28;20016;-82
2022/07/09 13:32:03;;;;;;;4.10;1.30;;;;;;;;;;4999004;28;20397;-84
2022/07/09 13:34:52;;;;;;;3.45;1.40;;;;;;;;;;5009508;28;20051;-84
2022/07/09 13:37:38;;;;;;;2.80;1.50;;;;;;;;;;4951850;28;20023;-73
2022/07/09 13:40:23;;;;;;;1.55;1.10;;;;;;;;;;4972610;28;20035;-83
2022/07/09 13:43:09;;;;;;;1.42;1.00;;;;;;;;;;4964584;28;20379;-83
2022/07/09 13:45:55;;;;;;;4.25;1.85;;;;;;;;;;4975750;28;20036;-83
2022/07/09 13:48:42;;;;;;;4.07;1.33;;;;;;;;;;4976649;28;20059;-83
2022/07/09 13:51:27;;;;;;;3.58;1.20;;;;;;;;;;4947937;28;20027;-83
2022/07/09 13:54:13;;;;;;;2.88;1.10;;;;;;;;;;4956800;28;20023;-83
2022/07/09 13:56:58;;;;;;;2.83;1.33;;;;;;;;;;4959950;28;20081;-77
2022/07/09 13:59:44;;;;;;;4.55;1.85;;;;;;;;;;4956769;28;20406;-84
2022/07/09 14:02:32;;;;;;;3.50;1.35;;;;;;;;;;4961277;28;20067;-84
2022/07/09 14:05:19;;;;;;;4.13;1.40;;;;;;;;;;4981711;28;20085;-84
2022/07/09 14:08:05;;;;;;;1.30;1.15;;;;;;;;;;4958888;28;20027;-83
2022/07/09 14:10:57;;;;;;;5.03;1.60;;;;;;;;;;4953514;28;20031;-84
2022/07/09 14:13:43;;;;;;;3.67;1.40;;;;;;;;;;4942620;28;20026;-72
2022/07/09 14:16:29;;;;;;;2.88;1.00;;;;;;;;;;5022813;28;20029;-73
2022/07/09 14:19:14;;;;;;;1.77;1.45;;;;;;;;;;4956115;28;20034;-71
2022/07/09 14:22:00;;;;;;;3.72;1.77;;;;;;;;;;4955780;28;20374;-73
2022/07/09 14:24:46;;;;;;;2.25;1.50;;;;;;;;;;4961546;28;20054;-72
2022/07/09 14:27:31;;;;;;;3.78;1.67;;;;;;;;;;4942937;28;20509;-73
2022/07/09 14:30:17;;;;;;;1.95;1.40;;;;;;;;;;4955316;28;20121;-73
2022/07/09 14:33:03;;;;;;;3.78;1.30;;;;;;;;;;4976535;28;20031;-77
2022/07/09 14:35:50;;;;;;;4.80;2.05;;;;;;;;;;4957327;28;20069;-76
2022/07/09 14:38:36;;;;;;;2.83;1.48;;;;;;;;;;4965196;28;20035;-76
2022/07/09 14:41:22;;;;;;;6.72;1.63;;;;;;;;;;4943474;28;20038;-78
2022/07/09 14:44:07;;;;;;;3.75;1.25;;;;;;;;;;4953699;28;20035;-78
2022/07/09 14:46:58;;;;;;;2.50;1.27;;;;;;;;;;4956712;28;20067;-76
2022/07/09 14:49:43;;;;;;;1.83;1.30;;;;;;;;;;4955511;28;20473;-77
2022/07/09 14:52:29;;;;;;;3.70;1.38;;;;;;;;;;4955650;28;20019;-77
2022/07/09 14:55:14;;;;;;;1.90;1.20;;;;;;;;;;4989574;23;20483;-69
2022/07/09 14:58:00;;;;;;;2.08;1.20;;;;;;;;;;4974712;28;20034;-69
2022/07/09 15:00:46;;;;;;;2.22;1.20;;;;;;;;;;4976973;28;20027;-71
2022/07/09 15:03:31;;;;;;;1.63;1.33;;;;;;;;;;4966931;28;20401;-70
2022/07/09 15:06:17;;;;;;;2.28;1.45;;;;;;;;;;4980749;28;20057;-71
2022/07/09 15:09:03;;;;;;;3.50;1.27;;;;;;;;;;5007736;28;20023;-69
2022/07/09 15:11:49;;;;;;;1.50;1.30;;;;;;;;;;4965838;28;20037;-69
2022/07/09 15:14:35;;;;;;;2.60;1.55;;;;;;;;;;4973252;28;20019;-71
2022/07/09 15:17:21;;;;;;;4.07;1.40;;;;;;;;;;4959599;28;20022;-69
2022/07/09 15:20:06;;;;;;;6.00;1.60;;;;;;;;;;4983110;28;20121;-69
2022/07/09 15:22:52;;;;;;;1.58;1.23;;;;;;;;;;4972984;28;20549;-68
2022/07/09 15:25:37;;;;;;;2.55;1.33;;;;;;;;;;4976473;28;20116;-69
2022/07/09 15:28:23;;;;;;;2.67;1.50;;;;;;;;;;4976786;28;20478;-80
2022/07/09 15:31:09;;;;;;;3.05;1.70;;;;;;;;;;4990945;22;21015;-75
2022/07/09 15:33:54;;;;;;;2.15;1.40;;;;;;;;;;4962383;28;20153;-73
2022/07/09 15:36:41;;;;;;;6.00;1.67;;;;;;;;;;4951631;28;20099;-75
2022/07/09 15:39:26;;;;;;;4.82;1.67;;;;;;;;;;4952212;28;20118;-74
2022/07/09 15:42:12;;;;;;;2.65;1.50;;;;;;;;;;4967909;28;20081;-75
2022/07/09 15:44:58;;;;;;;4.35;1.60;;;;;;;;;;4952077;28;20034;-73
2022/07/09 15:47:43;;;;;;;2.80;1.70;;;;;;;;;;4951764;28;20019;-73
2022/07/09 15:50:29;;;;;;;3.00;1.60;;;;;;;;;;4952399;28;20136;-74
2022/07/09 15:53:14;;;;;;;3.58;2.00;;;;;;;;;;4952188;28;20023;-74
2022/07/09 15:56:00;;;;;;;3.00;1.73;;;;;;;;;;4959038;28;20061;-73
2022/07/09 15:58:46;;;;;;;3.58;1.95;;;;;;;;;;4951687;28;20038;-75
2022/07/09 16:01:32;;;;;;;3.03;1.58;;;;;;;;;;4950803;28;20113;-73
2022/07/09 16:04:17;;;;;;;3.25;1.80;;;;;;;;;;4957546;28;20065;-73
2022/07/09 16:07:03;;;;;;;3.22;1.75;;;;;;;;;;4954438;28;20751;-83
2022/07/09 16:09:49;;;;;;;4.65;1.80;;;;;;;;;;4955628;28;20402;-72
2022/07/09 16:12:50;;;;;;;3.65;1.58;;;;;;;;;;4951570;28;20024;-72
2022/07/09 16:15:36;;;;;;;5.15;2.03;;;;;;;;;;4937866;28;20037;-71
2022/07/09 16:18:21;;;;;;;3.40;1.83;;;;;;;;;;4952219;28;20134;-74
2022/07/09 16:21:07;;;;;;;3.10;1.67;;;;;;;;;;4963097;28;20486;-74
2022/07/09 16:23:54;;;;;;;2.75;1.88;;;;;;;;;;4957338;28;20031;-79
2022/07/09 16:26:39;;;;;;;6.13;2.03;;;;;;;;;;4952296;28;20121;-80
2022/07/09 16:29:25;;;;;;;5.20;2.17;;;;;;;;;;4949939;28;20038;-78
2022/07/09 16:32:11;;;;;;;5.47;1.80;;;;;;;;;;4955890;28;20041;-78
2022/07/09 16:34:56;;;;;;;3.65;1.70;;;;;;;;;;4950257;28;20051;-77